createdAt,value
2023-02-19T00:01:31.292Z,10.30
2023-02-19T00:04:07.630Z,10.20
2023-02-19T00:06:35.907Z,10.20
2023-02-19T00:09:04.143Z,10.20
2023-02-19T00:11:34.273Z,10.10
2023-02-19T00:14:02.588Z,10.20
2023-02-19T00:16:32.858Z,10.20
2023-02-19T00:19:01.000Z,10.20
2023-02-19T00:21:28.312Z,10.20
2023-02-19T00:24:03.837Z,10.10
2023-02-19T00:26:31.355Z,10.10
2023-02-19T00:28:58.930Z,10.10
2023-02-19T00:31:34.379Z,10.00
2023-02-19T00:34:04.248Z,10.00
2023-02-19T00:36:31.878Z,10.00
2023-02-19T00:38:58.816Z,10.00
2023-02-19T00:41:26.484Z,9.90
2023-02-19T00:44:00.496Z,9.90
2023-02-19T00:46:29.818Z,9.90
2023-02-19T00:48:57.729Z,9.90
2023-02-19T00:51:27.465Z,9.90
2023-02-19T00:53:54.301Z,9.80
2023-02-19T00:56:21.684Z,9.80
2023-02-19T00:58:49.540Z,9.80
2023-02-19T01:01:16.918Z,9.80
2023-02-19T01:03:43.751Z,9.70
2023-02-19T01:06:13.005Z,9.70
2023-02-19T01:08:40.020Z,9.70
2023-02-19T01:11:08.554Z,9.70
2023-02-19T01:13:36.057Z,9.60
2023-02-19T01:16:16.752Z,9.50
2023-02-19T01:18:43.982Z,9.40
2023-02-19T01:21:14.901Z,9.40
2023-02-19T01:23:41.900Z,9.30
2023-02-19T01:26:12.492Z,9.30
2023-02-19T01:28:39.718Z,9.20
2023-02-19T01:31:09.376Z,9.20
2023-02-19T01:33:36.381Z,9.20
2023-02-19T01:36:04.447Z,9.20
2023-02-19T01:38:31.242Z,9.10
2023-02-19T01:41:07.250Z,9.20
2023-02-19T01:43:54.917Z,9.10
2023-02-19T01:46:21.801Z,9.10
2023-02-19T01:48:49.031Z,9.10
2023-02-19T01:51:20.064Z,9.10
2023-02-19T01:53:54.060Z,9.00
2023-02-19T01:56:22.204Z,9.00
2023-02-19T01:58:49.248Z,8.90
2023-02-19T02:01:16.148Z,8.90
2023-02-19T02:03:47.141Z,8.80
2023-02-19T02:06:19.873Z,8.80
2023-02-19T02:09:05.863Z,8.80
2023-02-19T02:11:32.824Z,8.80
2023-02-19T02:14:00.639Z,8.90
2023-02-19T02:17:11.221Z,8.80
2023-02-19T02:20:08.128Z,8.80
2023-02-19T02:22:41.348Z,8.80
2023-02-19T02:25:10.971Z,8.70
2023-02-19T02:28:01.873Z,8.70
2023-02-19T02:30:33.299Z,8.70
2023-02-19T02:33:29.608Z,8.70
2023-02-19T02:36:14.836Z,8.60
2023-02-19T02:38:44.965Z,8.60
2023-02-19T02:41:14.093Z,8.60
2023-02-19T02:43:41.661Z,8.50
2023-02-19T02:46:12.881Z,8.50
2023-02-19T02:48:45.397Z,8.50
2023-02-19T02:51:12.787Z,8.40
2023-02-19T02:54:12.308Z,8.40
2023-02-19T02:56:41.403Z,8.30
2023-02-19T02:59:11.274Z,8.10
2023-02-19T03:02:12.692Z,8.20
2023-02-19T03:05:17.166Z,8.20
2023-02-19T03:08:01.977Z,8.20
2023-02-19T03:10:40.033Z,8.20
2023-02-19T03:13:37.967Z,8.20
2023-02-19T03:16:30.753Z,8.20
2023-02-19T03:19:18.347Z,8.20
2023-02-19T03:22:11.657Z,8.20
2023-02-19T03:25:17.847Z,8.00
2023-02-19T03:27:47.974Z,8.00
2023-02-19T03:30:23.542Z,8.10
2023-02-19T03:33:00.740Z,8.00
2023-02-19T03:35:31.659Z,8.00
2023-02-19T03:38:40.309Z,8.00
2023-02-19T03:41:11.751Z,8.00
2023-02-19T03:43:45.330Z,7.90
2023-02-19T03:46:46.844Z,7.80
2023-02-19T03:49:24.185Z,7.90
2023-02-19T03:52:20.537Z,7.70
2023-02-19T03:54:57.070Z,7.70
2023-02-19T03:57:28.611Z,7.60
2023-02-19T04:00:11.386Z,7.70
2023-02-19T04:02:55.768Z,7.60
2023-02-19T04:05:30.220Z,7.60
2023-02-19T04:08:06.188Z,7.60
2023-02-19T04:10:33.469Z,7.50
2023-02-19T04:13:08.112Z,7.60
2023-02-19T04:15:41.276Z,7.60
2023-02-19T04:18:13.599Z,7.60
2023-02-19T04:20:44.539Z,6.20
2023-02-19T04:23:12.774Z,7.60
2023-02-19T04:25:45.173Z,7.60
2023-02-19T04:28:14.905Z,7.60
2023-02-19T04:30:42.065Z,7.60
2023-02-19T04:33:09.117Z,7.60
2023-02-19T04:35:36.426Z,7.60
2023-02-19T04:38:03.706Z,7.50
2023-02-19T04:40:30.641Z,7.50
2023-02-19T04:42:57.580Z,7.40
2023-02-19T04:45:24.443Z,7.40
2023-02-19T04:47:51.279Z,7.30
2023-02-19T04:50:18.209Z,7.30
2023-02-19T04:52:45.074Z,7.30
2023-02-19T04:55:12.041Z,7.30
2023-02-19T04:57:38.816Z,7.40
2023-02-19T05:00:06.306Z,7.30
2023-02-19T05:02:33.082Z,7.30
2023-02-19T05:04:59.898Z,7.30
2023-02-19T05:07:26.705Z,7.30
2023-02-19T05:09:53.457Z,7.20
2023-02-19T05:12:20.328Z,7.20
2023-02-19T05:14:47.520Z,7.20
2023-02-19T05:17:14.687Z,7.20
2023-02-19T05:19:41.840Z,7.30
2023-02-19T05:22:08.656Z,7.20
2023-02-19T05:24:35.435Z,7.30
2023-02-19T05:27:02.234Z,7.20
2023-02-19T05:29:31.367Z,7.20
2023-02-19T05:31:58.681Z,7.30
2023-02-19T05:34:25.956Z,7.30
2023-02-19T05:36:52.744Z,7.30
2023-02-19T05:39:19.568Z,7.30
2023-02-19T05:41:46.398Z,7.20
2023-02-19T05:44:13.204Z,7.00
2023-02-19T05:46:40.065Z,7.00
2023-02-19T05:49:06.951Z,6.90
2023-02-19T05:51:33.733Z,6.80
2023-02-19T05:54:01.032Z,6.80
2023-02-19T05:56:34.161Z,6.80
2023-02-19T05:59:07.927Z,6.90
2023-02-19T06:01:35.336Z,6.90
2023-02-19T06:04:02.560Z,6.90
2023-02-19T06:06:29.457Z,6.90
2023-02-19T06:08:56.751Z,7.00
2023-02-19T06:11:24.536Z,7.10
2023-02-19T06:13:51.433Z,7.00
2023-02-19T06:16:18.766Z,7.00
2023-02-19T06:18:46.355Z,7.00
2023-02-19T06:21:14.996Z,7.10
2023-02-19T06:23:42.563Z,7.10
2023-02-19T06:26:12.549Z,7.00
2023-02-19T06:28:40.464Z,7.00
2023-02-19T06:31:08.064Z,7.10
2023-02-19T06:33:36.379Z,7.10
2023-02-19T06:36:04.985Z,7.10
2023-02-19T06:38:31.944Z,7.30
2023-02-19T06:41:03.737Z,7.40
2023-02-19T06:43:32.052Z,7.50
2023-02-19T06:46:00.742Z,7.50
2023-02-19T06:48:29.092Z,7.60
2023-02-19T06:50:56.282Z,7.80
2023-02-19T06:53:23.684Z,7.90
2023-02-19T06:56:08.279Z,7.90
2023-02-19T06:58:35.317Z,7.90
2023-02-19T07:01:02.214Z,7.90
2023-02-19T07:03:29.109Z,8.10
2023-02-19T07:05:59.085Z,8.10
2023-02-19T07:08:27.932Z,8.20
2023-02-19T07:10:57.580Z,8.30
2023-02-19T07:13:26.736Z,8.50
2023-02-19T07:16:07.979Z,8.70
2023-02-19T07:18:35.495Z,9.00
2023-02-19T07:21:06.821Z,9.00
2023-02-19T07:23:34.536Z,9.30
2023-02-19T07:26:01.941Z,9.50
2023-02-19T07:28:29.296Z,9.70
2023-02-19T07:31:02.123Z,9.90
2023-02-19T07:33:29.085Z,10.00
2023-02-19T07:35:56.419Z,10.10
2023-02-19T07:38:25.606Z,10.30
2023-02-19T07:41:00.020Z,10.40
2023-02-19T07:43:30.226Z,10.60
2023-02-19T07:45:57.180Z,10.80
2023-02-19T07:48:24.308Z,10.90
2023-02-19T07:50:55.505Z,11.10
2023-02-19T07:53:24.333Z,11.30
2023-02-19T07:55:51.760Z,11.30
2023-02-19T07:58:19.304Z,11.50
2023-02-19T08:00:46.323Z,11.60
2023-02-19T08:03:13.231Z,11.60
2023-02-19T08:05:42.319Z,11.80
2023-02-19T08:08:11.454Z,12.00
2023-02-19T08:10:56.770Z,12.10
2023-02-19T08:13:27.665Z,12.40
2023-02-19T08:16:20.070Z,12.40
2023-02-19T08:18:51.168Z,12.40
2023-02-19T08:21:20.429Z,12.40
2023-02-19T08:23:50.616Z,12.50
2023-02-19T08:26:17.853Z,13.70
2023-02-19T08:28:45.166Z,12.70
2023-02-19T08:31:13.099Z,12.80
2023-02-19T08:33:40.557Z,12.90
2023-02-19T08:36:09.407Z,13.00
2023-02-19T08:38:37.730Z,13.10
2023-02-19T08:41:07.408Z,13.30
2023-02-19T08:43:34.769Z,13.50
2023-02-19T08:46:02.197Z,13.70
2023-02-19T08:48:29.084Z,13.90
2023-02-19T08:50:58.356Z,14.10
2023-02-19T08:53:26.519Z,14.30
2023-02-19T08:55:54.146Z,14.50
2023-02-19T08:58:21.029Z,14.70
2023-02-19T09:00:48.117Z,14.90
2023-02-19T09:03:14.994Z,15.10
2023-02-19T09:05:41.941Z,15.30
2023-02-19T09:08:09.532Z,15.60
2023-02-19T09:10:36.968Z,15.90
2023-02-19T09:13:04.658Z,16.20
2023-02-19T09:15:33.429Z,16.50
2023-02-19T09:18:00.894Z,16.70
2023-02-19T09:20:27.792Z,17.00
2023-02-19T09:22:59.344Z,17.20
2023-02-19T09:25:26.632Z,17.60
2023-02-19T09:27:56.956Z,17.80
2023-02-19T09:30:24.132Z,18.00
2023-02-19T09:32:51.154Z,17.80
2023-02-19T09:35:18.156Z,17.40
2023-02-19T09:37:44.940Z,17.20
2023-02-19T09:40:12.573Z,17.10
2023-02-19T09:42:43.016Z,17.20
2023-02-19T09:45:17.749Z,17.50
2023-02-19T09:47:46.628Z,18.10
2023-02-19T09:50:19.813Z,18.40
2023-02-19T09:52:58.365Z,18.80
2023-02-19T09:55:34.837Z,19.10
2023-02-19T09:58:08.425Z,19.20
2023-02-19T10:00:37.607Z,19.10
2023-02-19T10:03:11.321Z,19.00
2023-02-19T10:05:39.930Z,18.90
2023-02-19T10:08:12.825Z,18.60
2023-02-19T10:10:41.526Z,18.50
2023-02-19T10:13:22.107Z,18.30
2023-02-19T10:15:52.530Z,18.10
2023-02-19T10:18:23.642Z,18.00
2023-02-19T10:20:52.625Z,18.00
2023-02-19T10:23:20.281Z,18.00
2023-02-19T10:25:58.546Z,18.30
2023-02-19T10:28:30.635Z,18.60
2023-02-19T10:31:00.409Z,18.80
2023-02-19T10:33:27.688Z,19.20
2023-02-19T10:35:57.714Z,19.40
2023-02-19T10:38:33.154Z,19.80
2023-02-19T10:41:07.544Z,20.50
2023-02-19T10:43:42.256Z,21.00
2023-02-19T10:46:23.566Z,21.30
2023-02-19T10:49:04.151Z,21.80
2023-02-19T10:51:41.979Z,22.30
2023-02-19T10:54:15.127Z,23.00
2023-02-19T10:56:42.256Z,23.60
2023-02-19T10:59:18.690Z,23.80
2023-02-19T11:02:01.266Z,24.20
2023-02-19T11:04:38.433Z,24.70
2023-02-19T11:07:17.003Z,24.60
2023-02-19T11:09:53.001Z,24.10
2023-02-19T11:12:31.955Z,23.70
2023-02-19T11:15:29.675Z,23.90
2023-02-19T11:18:07.133Z,23.90
2023-02-19T11:20:34.342Z,23.70
2023-02-19T11:23:15.621Z,23.40
2023-02-19T11:25:54.160Z,23.20
2023-02-19T11:28:27.205Z,22.90
2023-02-19T11:30:54.126Z,22.90
2023-02-19T11:33:27.597Z,23.40
2023-02-19T11:36:16.570Z,23.90
2023-02-19T11:38:43.599Z,24.30
2023-02-19T11:41:26.216Z,24.30
2023-02-19T11:44:14.244Z,24.30
2023-02-19T11:47:03.539Z,24.50
2023-02-19T11:50:11.918Z,24.00
2023-02-19T11:52:46.252Z,23.30
2023-02-19T11:55:37.731Z,22.90
2023-02-19T11:58:23.411Z,22.50
2023-02-19T12:01:12.207Z,22.50
2023-02-19T12:04:09.029Z,23.10
2023-02-19T12:06:46.830Z,23.60
2023-02-19T12:09:48.145Z,23.60
2023-02-19T12:12:41.436Z,22.10
2023-02-19T12:15:34.136Z,21.20
2023-02-19T12:18:34.656Z,20.70
2023-02-19T12:21:04.252Z,20.50
2023-02-19T12:23:54.801Z,20.50
2023-02-19T12:26:48.848Z,20.10
2023-02-19T12:29:31.417Z,20.10
2023-02-19T12:32:07.730Z,19.80
2023-02-19T12:34:53.309Z,19.40
2023-02-19T12:38:00.444Z,19.20
2023-02-19T12:40:37.186Z,18.70
2023-02-19T12:43:22.199Z,18.70
2023-02-19T12:45:54.851Z,19.00
2023-02-19T12:48:40.053Z,19.10
2023-02-19T12:51:06.864Z,18.80
2023-02-19T12:53:45.818Z,18.90
2023-02-19T12:56:22.819Z,18.90
2023-02-19T12:59:10.005Z,19.00
2023-02-19T13:05:41.256Z,18.70
2023-02-19T13:09:03.411Z,18.70
2023-02-19T13:11:40.267Z,19.00
2023-02-19T13:14:33.296Z,19.40
2023-02-19T13:17:18.483Z,19.70
2023-02-19T13:19:48.491Z,19.50
2023-02-19T13:22:47.877Z,18.80
2023-02-19T13:25:17.897Z,18.40
2023-02-19T13:28:06.204Z,18.50
2023-02-19T13:31:05.567Z,18.90
2023-02-19T13:33:32.563Z,19.20
2023-02-19T13:36:11.853Z,19.40
2023-02-19T13:38:45.089Z,19.80
2023-02-19T13:41:28.105Z,19.70
2023-02-19T13:44:02.401Z,19.40
2023-02-19T13:46:39.693Z,19.10
2023-02-19T13:49:25.260Z,18.90
2023-02-19T13:51:55.898Z,19.00
2023-02-19T13:54:31.449Z,19.20
2023-02-19T13:57:35.276Z,19.20
2023-02-19T14:00:02.186Z,19.70
2023-02-19T14:02:34.107Z,20.30
2023-02-19T14:05:11.514Z,20.80
2023-02-19T14:07:52.910Z,21.00
2023-02-19T14:10:53.036Z,20.90
2023-02-19T14:13:47.720Z,20.80
2023-02-19T14:16:49.616Z,20.10
2023-02-19T14:19:42.624Z,19.50
2023-02-19T14:22:48.786Z,18.90
2023-02-19T14:25:28.704Z,18.40
2023-02-19T14:28:01.750Z,17.90
2023-02-19T14:30:29.374Z,17.50
2023-02-19T14:33:09.661Z,17.60
2023-02-19T14:35:44.194Z,17.50
2023-02-19T14:38:25.864Z,17.20
2023-02-19T14:40:54.292Z,17.00
2023-02-19T14:43:24.839Z,17.10
2023-02-19T14:45:59.140Z,17.10
2023-02-19T14:48:31.478Z,17.30
2023-02-19T14:51:07.137Z,17.40
2023-02-19T14:53:38.876Z,17.50
2023-02-19T14:56:14.818Z,17.50
2023-02-19T14:58:42.187Z,17.40
2023-02-19T15:01:28.500Z,17.20
2023-02-19T15:03:56.568Z,17.10
2023-02-19T15:06:24.520Z,17.00
2023-02-19T15:08:58.037Z,17.10
2023-02-19T15:11:28.165Z,17.10
2023-02-19T15:14:00.577Z,17.30
2023-02-19T15:16:29.284Z,17.40
2023-02-19T15:18:58.099Z,17.50
2023-02-19T15:21:26.370Z,17.40
2023-02-19T15:24:05.246Z,17.30
2023-02-19T15:26:37.761Z,17.30
2023-02-19T15:29:13.925Z,17.10
2023-02-19T15:31:56.257Z,16.90
2023-02-19T15:34:24.458Z,16.80
2023-02-19T15:36:57.270Z,16.70
2023-02-19T15:39:27.546Z,16.70
2023-02-19T15:42:00.600Z,16.70
2023-02-19T15:44:28.061Z,16.80
2023-02-19T15:46:56.375Z,17.20
2023-02-19T15:49:32.056Z,17.50
2023-02-19T15:52:09.874Z,17.80
2023-02-19T15:54:42.261Z,18.00
2023-02-19T15:57:16.976Z,18.00
2023-02-19T16:00:15.051Z,17.90
2023-02-19T16:02:42.757Z,18.10
2023-02-19T16:05:27.368Z,18.00
2023-02-19T16:08:12.610Z,17.90
2023-02-19T16:10:39.528Z,17.60
2023-02-19T16:13:12.185Z,17.20
2023-02-19T16:15:39.789Z,16.80
2023-02-19T16:18:06.695Z,16.30
2023-02-19T16:20:35.404Z,16.00
2023-02-19T16:23:11.159Z,15.70
2023-02-19T16:25:42.148Z,15.40
2023-02-19T16:28:21.579Z,15.20
2023-02-19T16:31:04.270Z,15.00
2023-02-19T16:33:39.196Z,14.80
2023-02-19T16:36:22.403Z,14.70
2023-02-19T16:39:19.557Z,14.50
2023-02-19T16:41:47.251Z,14.30
2023-02-19T16:44:39.038Z,14.20
2023-02-19T16:47:20.589Z,14.00
2023-02-19T16:49:48.272Z,13.90
2023-02-19T16:52:17.745Z,13.80
2023-02-19T16:54:46.271Z,13.70
2023-02-19T16:57:38.175Z,13.70
2023-02-19T17:00:04.252Z,13.60
2023-02-19T17:02:34.337Z,13.50
2023-02-19T17:05:03.275Z,13.40
2023-02-19T17:07:34.358Z,13.40
2023-02-19T17:10:04.384Z,13.40
2023-02-19T17:12:34.171Z,13.30
2023-02-19T17:15:01.534Z,13.30
2023-02-19T17:17:29.773Z,13.20
2023-02-19T17:19:58.236Z,13.20
2023-02-19T17:22:26.925Z,13.10
2023-02-19T17:24:55.860Z,13.10
2023-02-19T17:27:23.166Z,13.00
2023-02-19T17:29:50.932Z,12.90
2023-02-19T17:32:18.064Z,12.90
2023-02-19T17:34:50.196Z,12.90
2023-02-19T17:37:18.253Z,12.80
2023-02-19T17:39:45.474Z,12.80
2023-02-19T17:42:12.785Z,12.80
2023-02-19T17:44:40.397Z,12.70
2023-02-19T17:47:10.641Z,12.70
2023-02-19T17:49:39.280Z,12.60
2023-02-19T17:52:13.340Z,12.60
2023-02-19T17:54:41.216Z,12.40
2023-02-19T17:57:08.527Z,12.50
2023-02-19T17:59:35.975Z,12.50
2023-02-19T18:02:03.298Z,12.50
2023-02-19T18:04:30.475Z,12.50
2023-02-19T18:06:57.453Z,12.50
2023-02-19T18:09:24.802Z,12.50
2023-02-19T18:11:51.847Z,12.40
2023-02-19T18:14:18.984Z,12.40
2023-02-19T18:16:50.442Z,13.90
2023-02-19T18:19:18.315Z,12.40
2023-02-19T18:21:45.124Z,12.40
2023-02-19T18:24:12.599Z,12.40
2023-02-19T18:26:39.631Z,12.30
2023-02-19T18:29:07.124Z,12.30
2023-02-19T18:31:37.131Z,12.30
2023-02-19T18:34:05.560Z,12.20
2023-02-19T18:36:33.076Z,12.30
2023-02-19T18:39:00.314Z,12.30
2023-02-19T18:41:30.344Z,12.30
2023-02-19T18:43:57.182Z,12.30
2023-02-19T18:46:24.139Z,12.20
2023-02-19T18:48:51.003Z,12.30
2023-02-19T18:51:17.851Z,12.20
2023-02-19T18:53:44.689Z,12.20
2023-02-19T18:56:11.558Z,12.20
2023-02-19T18:58:38.383Z,12.20
2023-02-19T19:01:05.502Z,12.20
2023-02-19T19:03:32.365Z,12.10
2023-02-19T19:06:02.362Z,12.10
2023-02-19T19:08:30.677Z,12.00
2023-02-19T19:10:58.029Z,12.10
2023-02-19T19:13:27.618Z,12.10
2023-02-19T19:15:57.442Z,12.10
2023-02-19T19:18:25.113Z,12.10
2023-02-19T19:20:56.286Z,12.00
2023-02-19T19:23:23.057Z,12.00
2023-02-19T19:25:49.865Z,12.00
2023-02-19T19:28:16.686Z,11.90
2023-02-19T19:30:45.775Z,11.90
2023-02-19T19:33:14.227Z,11.90
2023-02-19T19:35:41.220Z,12.00
2023-02-19T19:38:13.736Z,12.00
2023-02-19T19:41:14.281Z,11.90
2023-02-19T19:43:41.752Z,11.80
2023-02-19T19:46:09.291Z,11.70
2023-02-19T19:48:36.697Z,11.60
2023-02-19T19:51:03.597Z,11.60
2023-02-19T19:53:30.447Z,11.60
2023-02-19T19:55:58.075Z,11.50
2023-02-19T19:58:25.408Z,11.50
2023-02-19T20:00:52.917Z,11.40
2023-02-19T20:03:20.773Z,11.40
2023-02-19T20:05:52.900Z,11.30
2023-02-19T20:08:20.146Z,11.30
2023-02-19T20:10:47.202Z,11.10
2023-02-19T20:13:19.009Z,11.00
2023-02-19T20:15:46.011Z,10.90
2023-02-19T20:18:15.065Z,10.80
2023-02-19T20:20:41.905Z,10.60
2023-02-19T20:23:09.571Z,10.60
2023-02-19T20:25:40.624Z,10.50
2023-02-19T20:28:07.479Z,10.50
2023-02-19T20:30:37.126Z,10.40
2023-02-19T20:33:04.651Z,10.40
2023-02-19T20:35:31.942Z,10.30
2023-02-19T20:37:58.852Z,10.30
2023-02-19T20:40:27.699Z,10.30
2023-02-19T20:42:54.948Z,10.30
2023-02-19T20:45:22.068Z,10.30
2023-02-19T20:47:48.969Z,10.30
2023-02-19T20:50:19.162Z,10.20
2023-02-19T20:52:46.915Z,10.20
2023-02-19T20:55:13.713Z,10.10
2023-02-19T20:57:40.530Z,10.00
2023-02-19T21:00:08.773Z,10.10
2023-02-19T21:02:36.125Z,10.00
2023-02-19T21:05:04.429Z,10.00
2023-02-19T21:07:31.425Z,10.00
2023-02-19T21:09:58.774Z,9.90
2023-02-19T21:12:25.580Z,9.90
2023-02-19T21:14:52.555Z,9.80
2023-02-19T21:17:19.809Z,9.80
2023-02-19T21:19:49.307Z,9.80
2023-02-19T21:22:17.147Z,9.70
2023-02-19T21:24:44.658Z,9.70
2023-02-19T21:27:11.950Z,9.60
2023-02-19T21:29:38.962Z,9.60
2023-02-19T21:32:06.355Z,9.60
2023-02-19T21:34:33.218Z,9.60
2023-02-19T21:37:00.459Z,9.50
2023-02-19T21:39:28.021Z,9.50
2023-02-19T21:41:55.298Z,9.40
2023-02-19T21:44:22.210Z,9.40
2023-02-19T21:46:49.099Z,9.40
2023-02-19T21:49:16.082Z,9.30
2023-02-19T21:51:44.640Z,9.30
2023-02-19T21:54:17.295Z,9.20
2023-02-19T21:56:44.402Z,9.10
2023-02-19T21:59:12.000Z,9.10
2023-02-19T22:01:39.453Z,9.00
2023-02-19T22:04:08.023Z,9.00
2023-02-19T22:06:35.288Z,9.00
2023-02-19T22:09:02.351Z,9.10
2023-02-19T22:11:29.603Z,9.10
2023-02-19T22:13:56.863Z,9.10
2023-02-19T22:16:24.039Z,9.00
2023-02-19T22:18:53.536Z,9.00
2023-02-19T22:21:21.948Z,8.90
2023-02-19T22:23:50.295Z,8.90
2023-02-19T22:26:22.839Z,8.90
2023-02-19T22:28:50.207Z,8.90
2023-02-19T22:31:22.564Z,8.90
2023-02-19T22:33:50.405Z,8.70
2023-02-19T22:36:21.329Z,8.70
2023-02-19T22:38:49.206Z,8.70
2023-02-19T22:41:18.034Z,8.70
2023-02-19T22:43:45.345Z,8.70
2023-02-19T22:46:16.130Z,8.70
2023-02-19T22:48:43.116Z,8.60
2023-02-19T22:51:13.229Z,8.60
2023-02-19T22:53:59.282Z,8.60
2023-02-19T22:56:28.416Z,8.50
2023-02-19T22:58:56.804Z,8.40
2023-02-19T23:01:24.533Z,8.40
2023-02-19T23:03:54.950Z,8.40
2023-02-19T23:06:30.688Z,8.20
2023-02-19T23:08:59.780Z,8.20
2023-02-19T23:11:30.209Z,8.10
2023-02-19T23:13:57.283Z,8.10
2023-02-19T23:16:24.380Z,8.10
2023-02-19T23:18:52.120Z,8.10
2023-02-19T23:21:19.856Z,8.20
2023-02-19T23:23:47.996Z,8.20
2023-02-19T23:26:16.528Z,8.20
2023-02-19T23:28:44.676Z,8.20
2023-02-19T23:31:12.773Z,8.10
2023-02-19T23:33:40.358Z,8.10
2023-02-19T23:36:07.741Z,8.10
2023-02-19T23:38:34.833Z,8.10
2023-02-19T23:41:02.257Z,8.10
2023-02-19T23:43:29.522Z,8.10
2023-02-19T23:45:57.030Z,8.00
2023-02-19T23:48:24.334Z,8.10
2023-02-19T23:50:51.189Z,8.10
2023-02-19T23:53:18.066Z,8.10
2023-02-19T23:55:44.880Z,9.60
2023-02-19T23:58:11.824Z,8.20
